»·PEaware :: N902SQ KELP-KRAL

N902SQ :: KELP-KRAL

FLIGHT INFORMATION

Flight Status: Arrived
Operator: Privately registered:
United States
More flights under this callsign
Pilot: Gabor H. (24209)
Aircraft: SOCATA TBM-900
(TBM9)
More flights by this aircraft type
Origin: KELP El Paso Intl
United States
Destination: KRAL Riverside Mun
United States
More flights between these airports :: More routes between these airports
Route: SSO J50 TFD J169 KOFFA J50 BLH V16 PSP SETER5
File this flight plan on PilotEdge
Remarks:
Altitude:
(Current/Filed)
26,000ft
Speed:
(Current/Filed)
310kts
Departed: 23-Oct-23 07:09 AM
Arrived: 23-Oct-23 09:19 AM
Distance/Time
Traveled:
572nm/2:10
Distance/Time
To Go:
Arrived

Flight Plot

Page will automatically refresh every two minutes.

Flight plan parsing failed; only flown route is shown


Map Options




Map Legend


Flown Route
Filed Route
Departure Airport
Arrival Airport
Navaid (VOR, NDB)
Fix

Horizontal Profiles

Position Reports

Time Latitude Longitude Heading Altitude Ground
Speed
23-Oct-23 06:55 31.797491 -106.375955 261 3961ft 0kts
23-Oct-23 06:56 31.797491 -106.375955 261 3961ft 0kts
23-Oct-23 06:57 31.797491 -106.375955 261 3961ft 0kts
23-Oct-23 06:58 31.797491 -106.375955 261 3961ft 0kts
23-Oct-23 06:59 31.797491 -106.375955 261 3961ft 0kts
23-Oct-23 07:00 31.797491 -106.375955 261 3961ft 0kts
23-Oct-23 07:01 31.797491 -106.375955 261 3961ft 0kts
23-Oct-23 07:02 31.797491 -106.375955 261 3961ft 0kts
23-Oct-23 07:03 31.797491 -106.375955 261 3961ft 0kts
23-Oct-23 07:04 31.797491 -106.375955 261 3961ft 0kts
23-Oct-23 07:05 31.798961 -106.375926 96 3961ft 14kts
23-Oct-23 07:06 31.799519 -106.370092 95 3961ft 20kts
23-Oct-23 07:07 31.799116 -106.363392 93 3961ft 21kts
23-Oct-23 07:08 31.800875 -106.364170 275 3961ft 69kts
23-Oct-23 07:09 31.790022 -106.396239 207 5201ft 140kts
23-Oct-23 07:10 31.754081 -106.419590 207 7277ft 152kts
23-Oct-23 07:11 31.722841 -106.447627 252 9626ft 148kts
23-Oct-23 07:12 31.733051 -106.495811 283 11706ft 157kts
23-Oct-23 07:13 31.743463 -106.545511 282 13874ft 159kts
23-Oct-23 07:14 31.753684 -106.595263 281 16057ft 158kts
23-Oct-23 07:15 31.764091 -106.646062 281 18126ft 162kts
23-Oct-23 07:16 31.774689 -106.697989 280 20157ft 167kts
23-Oct-23 07:17 31.785632 -106.751719 279 22063ft 172kts
23-Oct-23 07:18 31.796962 -106.807475 279 23947ft 179kts
23-Oct-23 07:19 31.808446 -106.864065 277 25907ft 180kts
23-Oct-23 07:20 31.822638 -106.934627 279 26017ft 254kts
23-Oct-23 07:21 31.840074 -107.021087 279 25990ft 282kts
23-Oct-23 07:22 31.858397 -107.112321 279 25993ft 289kts
23-Oct-23 07:23 31.876910 -107.204894 279 26002ft 291kts
23-Oct-23 07:24 31.895478 -107.298132 279 26008ft 292kts
23-Oct-23 07:25 31.913990 -107.391479 279 26002ft 294kts
23-Oct-23 07:26 31.932538 -107.485345 279 25981ft 295kts
23-Oct-23 07:27 31.951087 -107.579665 279 25979ft 295kts
23-Oct-23 07:29 31.969513 -107.673697 279 25986ft 294kts
23-Oct-23 07:30 31.987799 -107.767427 278 25987ft 293kts
23-Oct-23 07:31 32.006094 -107.861675 279 25978ft 295kts
23-Oct-23 07:32 32.024335 -107.955937 278 25979ft 294kts
23-Oct-23 07:33 32.042489 -108.050235 278 25988ft 293kts
23-Oct-23 07:34 32.060511 -108.144181 278 25996ft 294kts
23-Oct-23 07:35 32.078514 -108.238476 279 26003ft 294kts
23-Oct-23 07:36 32.096451 -108.332787 278 25980ft 294kts
23-Oct-23 07:37 32.114291 -108.427013 278 25977ft 292kts
23-Oct-23 07:38 32.131948 -108.520633 278 25977ft 291kts
23-Oct-23 07:39 32.149479 -108.614093 278 25976ft 291kts
23-Oct-23 07:40 32.167034 -108.707962 278 25981ft 291kts
23-Oct-23 07:41 32.184474 -108.801669 278 25981ft 291kts
23-Oct-23 07:42 32.201803 -108.895196 278 25980ft 292kts
23-Oct-23 07:43 32.219140 -108.989124 278 25977ft 292kts
23-Oct-23 07:44 32.236335 -109.082771 278 25959ft 292kts
23-Oct-23 07:45 32.253485 -109.176549 277 25936ft 292kts
23-Oct-23 07:46 32.271022 -109.270733 281 25898ft 294kts
23-Oct-23 07:47 32.293790 -109.363386 281 25893ft 293kts
23-Oct-23 07:48 32.316495 -109.456489 281 25881ft 293kts
23-Oct-23 07:49 32.339042 -109.549274 281 25877ft 293kts
23-Oct-23 07:50 32.361548 -109.642219 281 25877ft 293kts
23-Oct-23 07:51 32.384037 -109.735420 281 25881ft 293kts
23-Oct-23 07:52 32.406411 -109.828471 281 25881ft 294kts
23-Oct-23 07:52 32.424997 -109.906023 281 25881ft 293kts
23-Oct-23 07:54 32.450986 -110.014818 281 25879ft 293kts
23-Oct-23 07:55 32.473172 -110.108110 281 25878ft 293kts
23-Oct-23 07:56 32.495186 -110.201007 281 25876ft 293kts
23-Oct-23 07:57 32.517230 -110.294335 281 25860ft 293kts
23-Oct-23 07:57 32.535520 -110.372026 281 25849ft 293kts
23-Oct-23 07:58 32.557416 -110.465318 280 25842ft 292kts
23-Oct-23 07:59 32.579085 -110.558062 280 25841ft 291kts
23-Oct-23 08:01 32.604338 -110.666552 280 25846ft 291kts
23-Oct-23 08:02 32.625824 -110.759199 280 25842ft 291kts
23-Oct-23 08:02 32.643688 -110.836519 280 25839ft 291kts
23-Oct-23 08:03 32.665081 -110.929410 280 25839ft 290kts
23-Oct-23 08:04 32.686320 -111.021974 280 25846ft 290kts
23-Oct-23 08:05 32.707472 -111.114501 280 25852ft 289kts
23-Oct-23 08:07 32.731810 -111.221378 280 25853ft 289kts
23-Oct-23 08:07 32.749237 -111.298210 280 25853ft 289kts
23-Oct-23 08:08 32.770165 -111.390775 279 25850ft 288kts
23-Oct-23 08:09 32.790895 -111.482808 279 25836ft 288kts
23-Oct-23 08:10 32.811590 -111.575007 279 25820ft 288kts
23-Oct-23 08:11 32.832183 -111.667121 279 25820ft 287kts
23-Oct-23 08:12 32.852739 -111.759363 279 25820ft 288kts
23-Oct-23 08:13 32.873225 -111.851653 279 25820ft 288kts
23-Oct-23 08:14 32.899534 -111.942084 289 25821ft 293kts
23-Oct-23 08:15 32.935392 -112.029799 289 25829ft 293kts
23-Oct-23 08:16 32.970901 -112.116968 288 25827ft 292kts
23-Oct-23 08:17 33.006185 -112.203769 288 25827ft 291kts
23-Oct-23 08:18 33.041554 -112.290947 288 25843ft 290kts
23-Oct-23 08:19 33.076596 -112.377582 288 25854ft 290kts
23-Oct-23 08:20 33.111768 -112.464736 288 25837ft 290kts
23-Oct-23 08:21 33.146769 -112.551676 288 25815ft 290kts
23-Oct-23 08:22 33.181678 -112.638616 288 25810ft 289kts
23-Oct-23 08:23 33.216456 -112.725437 287 25817ft 289kts
23-Oct-23 08:24 33.251180 -112.812367 287 25816ft 289kts
23-Oct-23 08:25 33.285713 -112.899022 287 25816ft 289kts
23-Oct-23 08:26 33.320335 -112.986111 287 25815ft 289kts
23-Oct-23 08:27 33.354801 -113.073054 287 25815ft 289kts
23-Oct-23 08:28 33.389230 -113.160101 287 25815ft 288kts
23-Oct-23 08:29 33.423598 -113.247242 287 25814ft 288kts
23-Oct-23 08:30 33.457777 -113.334093 287 25814ft 288kts
23-Oct-23 08:31 33.471138 -113.425072 270 25813ft 276kts
23-Oct-23 08:32 33.480200 -113.516773 270 25812ft 276kts
23-Oct-23 08:33 33.489164 -113.608330 269 25803ft 275kts
23-Oct-23 08:34 33.498050 -113.699918 269 25800ft 276kts
23-Oct-23 08:35 33.506893 -113.791663 269 25791ft 276kts
23-Oct-23 08:36 33.515651 -113.883272 269 25790ft 276kts
23-Oct-23 08:37 33.524344 -113.974951 269 25790ft 276kts
23-Oct-23 08:38 33.532972 -114.066682 269 25789ft 275kts
23-Oct-23 08:39 33.541475 -114.157799 269 25788ft 274kts
23-Oct-23 08:40 33.549910 -114.248920 269 25787ft 274kts
23-Oct-23 08:41 33.558275 -114.340040 269 25787ft 273kts
23-Oct-23 08:42 33.566528 -114.430646 269 25786ft 272kts
23-Oct-23 08:43 33.574659 -114.520670 269 25785ft 271kts
23-Oct-23 08:44 33.582748 -114.610959 269 25785ft 271kts
23-Oct-23 08:45 33.590754 -114.701130 268 25792ft 271kts
23-Oct-23 08:46 33.601211 -114.791113 273 25793ft 275kts
23-Oct-23 08:47 33.616637 -114.881624 273 25791ft 275kts
23-Oct-23 08:48 33.631941 -114.971646 273 25791ft 275kts
23-Oct-23 08:49 33.647189 -115.061742 273 25800ft 274kts
23-Oct-23 08:50 33.662295 -115.151416 273 25809ft 273kts
23-Oct-23 08:51 33.677293 -115.240867 273 25816ft 273kts
23-Oct-23 08:52 33.692269 -115.330595 273 25816ft 273kts
23-Oct-23 08:53 33.707164 -115.420267 273 25815ft 273kts
23-Oct-23 08:54 33.721973 -115.509818 273 25814ft 272kts
23-Oct-23 08:55 33.736698 -115.599334 273 25813ft 272kts
23-Oct-23 08:56 33.751338 -115.688721 272 25822ft 272kts
23-Oct-23 08:57 33.766518 -115.781992 273 24750ft 289kts
23-Oct-23 08:58 33.781824 -115.876282 272 24271ft 285kts
23-Oct-23 08:59 33.796966 -115.970174 272 23711ft 285kts
23-Oct-23 09:00 33.812064 -116.064257 273 23027ft 286kts
23-Oct-23 09:01 33.827028 -116.157973 273 22325ft 284kts
23-Oct-23 09:02 33.842081 -116.252802 273 21232ft 290kts
23-Oct-23 09:03 33.857131 -116.348018 274 20129ft 287kts
23-Oct-23 09:04 33.870692 -116.442774 267 18936ft 283kts
23-Oct-23 09:05 33.875162 -116.537495 268 17729ft 282kts
23-Oct-23 09:06 33.879616 -116.632200 269 16512ft 283kts
23-Oct-23 09:07 33.883986 -116.726298 269 15413ft 280kts
23-Oct-23 09:08 33.888278 -116.819666 270 14251ft 274kts
23-Oct-23 09:09 33.891776 -116.910087 270 12737ft 266kts
23-Oct-23 09:10 33.894183 -116.998128 270 11024ft 259kts
23-Oct-23 09:11 33.895154 -117.084829 270 9316ft 258kts
23-Oct-23 09:12 33.894938 -117.169731 270 7771ft 251kts
23-Oct-23 09:13 33.894936 -117.252959 270 5952ft 238kts
23-Oct-23 09:14 33.923124 -117.310966 320 4081ft 196kts
23-Oct-23 09:15 33.938890 -117.366566 278 2382ft 145kts
23-Oct-23 09:16 33.945427 -117.407558 284 1403ft 100kts
23-Oct-23 09:17 33.950897 -117.436490 283 820ft 73kts
23-Oct-23 09:18 33.951327 -117.442044 251 818ft 0kts
23-Oct-23 09:19 33.951354 -117.443759 205 818ft 8kts
23-Oct-23 09:20 33.950195 -117.443019 313 818ft 0kts
23-Oct-23 09:21 33.950195 -117.443019 313 818ft 0kts
23-Oct-23 09:22 33.950195 -117.443019 313 818ft 0kts
23-Oct-23 09:23 33.950195 -117.443019 313 818ft 0kts
23-Oct-23 09:24 33.950195 -117.443019 313 818ft 0kts
23-Oct-23 09:25 33.950195 -117.443019 313 818ft 0kts
23-Oct-23 09:26 33.950195 -117.443019 313 818ft 0kts

Navigation Log

Ident Type
Flight plan parsing failed, navigation log unavailable